createdAt,value
2019-01-12T00:01:49.558Z,96319.19
2019-01-12T00:04:20.778Z,96331.84
2019-01-12T00:06:51.932Z,96317.39
2019-01-12T00:09:23.111Z,96325.51
2019-01-12T00:11:54.190Z,96321.23
2019-01-12T00:14:25.214Z,96329.14
2019-01-12T00:16:56.371Z,96324.43
2019-01-12T00:19:27.388Z,96326.02
2019-01-12T00:21:58.473Z,96330.67
2019-01-12T00:24:31.696Z,96332.25
2019-01-12T00:27:02.412Z,96325.19
2019-01-12T00:29:33.590Z,96335.71
2019-01-12T00:32:04.749Z,96335.32
2019-01-12T00:34:35.952Z,96333.22
2019-01-12T00:37:07.137Z,96343.38
2019-01-12T00:39:38.198Z,96340.12
2019-01-12T00:42:09.283Z,96341.03
2019-01-12T00:44:40.371Z,96342.22
2019-01-12T00:47:11.446Z,96353.28
2019-01-12T00:49:42.499Z,96343.63
2019-01-12T00:52:13.716Z,96333.42
2019-01-12T00:54:44.923Z,96341.39
2019-01-12T00:57:15.997Z,96342.10
2019-01-12T00:59:47.097Z,96351.36
2019-01-12T01:02:18.235Z,96355.58
2019-01-12T01:04:49.406Z,96348.23
2019-01-12T01:07:20.570Z,96356.66
2019-01-12T01:09:51.736Z,96358.56
2019-01-12T01:12:22.884Z,96362.02
2019-01-12T01:14:53.963Z,96365.20
2019-01-12T01:17:25.030Z,96365.91
2019-01-12T01:19:56.363Z,96394.41
2019-01-12T01:22:27.590Z,96371.84
2019-01-12T01:24:58.940Z,96370.81
2019-01-12T01:27:30.022Z,96375.67
2019-01-12T01:30:01.169Z,96390.88
2019-01-12T01:32:32.254Z,96384.35
2019-01-12T01:35:03.423Z,96377.51
2019-01-12T01:37:34.721Z,96382.82
2019-01-12T01:40:07.634Z,96375.91
2019-01-12T01:42:38.778Z,96383.67
2019-01-12T01:45:10.736Z,96380.02
2019-01-12T01:47:41.876Z,96380.41
2019-01-12T01:50:14.044Z,96391.30
2019-01-12T01:52:45.260Z,96389.72
2019-01-12T01:55:16.362Z,96385.94
2019-01-12T01:57:47.446Z,96387.92
2019-01-12T02:00:19.424Z,96385.63
2019-01-12T02:02:50.551Z,96396.92
2019-01-12T02:05:21.806Z,96391.13
2019-01-12T02:07:53.008Z,96386.77
2019-01-12T02:10:24.217Z,96395.84
2019-01-12T02:12:55.682Z,96392.06
2019-01-12T02:15:26.785Z,96388.16
2019-01-12T02:17:57.769Z,96389.75
2019-01-12T02:20:28.965Z,96400.42
2019-01-12T02:22:59.958Z,96381.82
2019-01-12T02:25:31.060Z,96384.57
2019-01-12T02:28:02.188Z,96369.62
2019-01-12T02:30:33.439Z,96375.44
2019-01-12T02:33:04.524Z,96376.02
2019-01-12T02:35:35.670Z,96384.00
2019-01-12T02:38:06.837Z,96379.34
2019-01-12T02:40:38.032Z,96378.94
2019-01-12T02:43:09.145Z,96376.30
2019-01-12T02:45:40.158Z,96370.03
2019-01-12T02:48:11.301Z,96370.98
2019-01-12T02:50:42.333Z,96378.61
2019-01-12T02:53:13.412Z,96375.88
2019-01-12T02:55:44.612Z,96379.95
2019-01-12T02:58:15.742Z,96380.41
2019-01-12T03:00:46.885Z,96379.11
2019-01-12T03:03:17.959Z,96370.70
2019-01-12T03:05:49.131Z,96370.98
2019-01-12T03:08:20.374Z,96380.56
2019-01-12T03:10:51.637Z,96366.50
2019-01-12T03:13:22.781Z,96362.97
2019-01-12T03:15:53.949Z,96373.97
2019-01-12T03:18:25.085Z,96366.53
2019-01-12T03:20:56.252Z,96358.63
2019-01-12T03:23:27.753Z,96357.01
2019-01-12T03:25:58.856Z,96364.38
2019-01-12T03:28:29.849Z,96364.09
2019-01-12T03:31:00.868Z,96358.13
2019-01-12T03:33:31.937Z,96363.55
2019-01-12T03:36:03.163Z,96363.61
2019-01-12T03:38:34.329Z,96373.27
2019-01-12T03:41:05.581Z,96360.27
2019-01-12T03:43:36.683Z,96366.32
2019-01-12T03:46:07.838Z,96364.22
2019-01-12T03:48:38.976Z,96361.27
2019-01-12T03:51:10.156Z,96354.30
2019-01-12T03:53:41.294Z,96354.81
2019-01-12T03:56:12.543Z,96359.70
2019-01-12T03:58:43.685Z,96357.67
2019-01-12T04:01:14.885Z,96356.70
2019-01-12T04:03:45.969Z,96347.38
2019-01-12T04:06:17.181Z,96346.34
2019-01-12T04:08:48.318Z,96341.00
2019-01-12T04:11:20.536Z,96349.87
2019-01-12T04:13:51.518Z,96344.30
2019-01-12T04:16:22.792Z,96344.32
2019-01-12T04:18:53.776Z,96337.92
2019-01-12T04:21:24.836Z,96344.10
2019-01-12T04:23:55.792Z,96340.03
2019-01-12T04:26:26.942Z,96340.42
2019-01-12T04:28:59.025Z,96340.20
2019-01-12T04:31:30.103Z,96342.84
2019-01-12T04:34:01.231Z,96351.31
2019-01-12T04:36:33.482Z,96351.03
2019-01-12T04:39:07.512Z,96351.42
2019-01-12T04:41:38.675Z,96339.91
2019-01-12T04:44:09.811Z,96340.16
2019-01-12T04:46:40.938Z,96351.42
2019-01-12T04:49:12.027Z,96344.45
2019-01-12T04:51:43.144Z,96342.31
2019-01-12T04:54:14.211Z,96339.56
2019-01-12T04:56:45.309Z,96340.69
2019-01-12T04:59:16.462Z,96335.39
2019-01-12T05:01:47.576Z,96339.11
2019-01-12T05:04:18.759Z,96345.34
2019-01-12T05:06:49.954Z,96339.64
2019-01-12T05:09:21.037Z,96338.88
2019-01-12T05:11:52.216Z,96331.79
2019-01-12T05:14:23.378Z,96339.92
2019-01-12T05:16:54.484Z,96341.83
2019-01-12T05:19:25.608Z,96339.11
2019-01-12T05:21:56.629Z,96327.52
2019-01-12T05:24:27.748Z,96326.84
2019-01-12T05:26:58.773Z,96331.66
2019-01-12T05:29:30.024Z,96329.23
2019-01-12T05:32:01.088Z,96322.47
2019-01-12T05:34:32.156Z,96325.20
2019-01-12T05:37:03.335Z,96330.55
2019-01-12T05:39:34.479Z,96335.28
2019-01-12T05:42:05.655Z,96339.11
2019-01-12T05:44:37.422Z,96339.70
2019-01-12T05:47:08.593Z,96334.64
2019-01-12T05:49:39.711Z,96338.28
2019-01-12T05:52:10.780Z,96335.27
2019-01-12T05:54:41.775Z,96337.66
2019-01-12T05:57:12.994Z,96339.98
2019-01-12T05:59:43.984Z,96345.91
2019-01-12T06:02:15.132Z,96347.30
2019-01-12T06:04:46.223Z,96355.80
2019-01-12T06:07:17.313Z,96348.34
2019-01-12T06:09:48.382Z,96347.53
2019-01-12T06:12:19.434Z,96351.03
2019-01-12T06:14:50.500Z,96359.34
2019-01-12T06:17:21.570Z,96357.14
2019-01-12T06:19:52.643Z,96355.48
2019-01-12T06:22:23.783Z,96357.37
2019-01-12T06:24:54.757Z,96356.51
2019-01-12T06:27:25.762Z,96358.25
2019-01-12T06:29:56.936Z,96363.26
2019-01-12T06:32:28.312Z,96372.91
2019-01-12T06:34:59.508Z,96372.03
2019-01-12T06:37:30.819Z,96379.55
2019-01-12T06:40:01.874Z,96373.77
2019-01-12T06:42:33.235Z,96377.22
2019-01-12T06:45:05.172Z,96375.95
2019-01-12T06:47:36.417Z,96376.19
2019-01-12T06:50:08.794Z,96370.23
2019-01-12T06:52:39.855Z,96374.90
2019-01-12T06:55:11.020Z,96370.47
2019-01-12T06:57:42.375Z,96372.67
2019-01-12T07:00:16.134Z,96371.52
2019-01-12T07:02:47.289Z,96366.86
2019-01-12T07:05:18.516Z,96360.52
2019-01-12T07:07:49.820Z,96364.59
2019-01-12T07:10:20.957Z,96366.86
2019-01-12T07:12:52.080Z,96355.47
2019-01-12T07:15:23.258Z,96357.14
2019-01-12T07:17:54.257Z,96367.61
2019-01-12T07:20:25.446Z,96354.34
2019-01-12T07:22:56.458Z,96361.28
2019-01-12T07:25:27.598Z,96368.88
2019-01-12T07:27:58.665Z,96360.75
2019-01-12T07:30:29.826Z,96362.27
2019-01-12T07:33:01.013Z,96360.59
2019-01-12T07:35:31.999Z,96368.27
2019-01-12T07:38:03.085Z,96370.23
2019-01-12T07:40:34.115Z,96370.41
2019-01-12T07:43:05.347Z,96371.06
2019-01-12T07:45:36.407Z,96373.49
2019-01-12T07:48:07.562Z,96368.20
2019-01-12T07:50:38.693Z,96371.52
2019-01-12T07:53:10.863Z,96376.22
2019-01-12T07:55:41.912Z,96374.48
2019-01-12T07:58:13.021Z,96381.24
2019-01-12T08:00:44.073Z,96380.81
2019-01-12T08:03:15.314Z,96374.11
2019-01-12T08:05:46.326Z,96374.77
2019-01-12T08:08:17.521Z,96374.80
2019-01-12T08:10:48.631Z,96383.67
2019-01-12T08:13:20.993Z,96370.05
2019-01-12T08:15:52.123Z,96375.39
2019-01-12T08:18:23.207Z,96379.30
2019-01-12T08:20:54.322Z,96377.27
2019-01-12T08:23:25.490Z,96376.61
2019-01-12T08:25:56.633Z,96374.34
2019-01-12T08:28:28.775Z,96373.42
2019-01-12T08:30:59.907Z,96375.75
2019-01-12T08:33:30.987Z,96382.16
2019-01-12T08:36:02.078Z,96391.05
2019-01-12T08:38:33.159Z,96380.12
2019-01-12T08:41:04.474Z,96382.63
2019-01-12T08:43:35.562Z,96383.36
2019-01-12T08:46:06.660Z,96380.42
2019-01-12T08:48:38.010Z,96375.45
2019-01-12T08:51:09.163Z,96378.08
2019-01-12T08:53:40.241Z,96383.16
2019-01-12T08:56:11.303Z,96383.73
2019-01-12T08:58:42.377Z,96379.82
2019-01-12T09:01:13.635Z,96375.14
2019-01-12T09:03:44.800Z,96375.06
2019-01-12T09:06:15.938Z,96379.22
2019-01-12T09:08:46.974Z,96377.41
2019-01-12T09:11:18.029Z,96374.32
2019-01-12T09:13:49.293Z,96378.55
2019-01-12T09:16:20.343Z,96378.28
2019-01-12T09:18:51.443Z,96369.72
2019-01-12T09:21:22.619Z,96368.76
2019-01-12T09:23:53.676Z,96370.57
2019-01-12T09:26:24.726Z,96381.69
2019-01-12T09:28:55.810Z,96367.81
2019-01-12T09:31:26.971Z,96371.88
2019-01-12T09:33:58.039Z,96369.73
2019-01-12T09:36:29.183Z,96370.58
2019-01-12T09:39:00.337Z,96373.48
2019-01-12T09:41:31.481Z,96371.16
2019-01-12T09:44:02.575Z,96370.02
2019-01-12T09:46:33.700Z,96378.09
2019-01-12T09:49:04.824Z,96369.38
2019-01-12T09:51:35.953Z,96364.92
2019-01-12T09:54:07.146Z,96360.22
2019-01-12T09:56:38.279Z,96358.66
2019-01-12T09:59:09.463Z,96361.34
2019-01-12T10:01:40.641Z,96358.58
2019-01-12T10:04:11.780Z,96361.97
2019-01-12T10:06:42.877Z,96355.52
2019-01-12T10:09:13.960Z,96352.28
2019-01-12T10:11:45.056Z,96350.17
2019-01-12T10:14:16.236Z,96338.86
2019-01-12T10:16:47.222Z,96339.45
2019-01-12T10:19:18.302Z,96331.72
2019-01-12T10:21:49.435Z,96343.55
2019-01-12T10:24:20.606Z,96342.55
2019-01-12T10:26:58.387Z,96328.63
2019-01-12T10:29:24.638Z,96328.41
2019-01-12T10:31:55.637Z,96331.38
2019-01-12T10:34:26.727Z,96331.05
2019-01-12T10:36:57.995Z,96329.63
2019-01-12T10:39:29.308Z,96329.08
2019-01-12T10:42:00.411Z,96320.78
2019-01-12T10:44:31.582Z,96323.30
2019-01-12T10:47:02.903Z,96328.43
2019-01-12T10:49:34.061Z,96323.86
2019-01-12T10:52:05.451Z,96317.31
2019-01-12T10:54:36.519Z,96325.48
2019-01-12T10:57:07.743Z,96313.11
2019-01-12T10:59:38.944Z,96314.73
2019-01-12T11:02:10.244Z,96313.20
2019-01-12T11:04:41.465Z,96300.93
2019-01-12T11:07:18.463Z,96299.82
2019-01-12T11:09:49.614Z,96292.23
2019-01-12T11:12:20.925Z,96293.16
2019-01-12T11:14:52.012Z,96291.26
2019-01-12T11:17:23.148Z,96295.80
2019-01-12T11:19:54.148Z,96280.98
2019-01-12T11:22:25.259Z,96278.08
2019-01-12T11:24:56.697Z,96273.61
2019-01-12T11:27:28.019Z,96277.08
2019-01-12T11:29:59.035Z,96277.83
2019-01-12T11:32:30.155Z,96275.69
2019-01-12T11:35:01.169Z,96283.48
2019-01-12T11:37:32.222Z,96275.23
2019-01-12T11:40:04.082Z,96272.89
2019-01-12T11:42:35.166Z,96261.47
2019-01-12T11:45:07.116Z,96254.22
2019-01-12T11:47:38.226Z,96251.83
2019-01-12T11:50:11.851Z,96251.39
2019-01-12T11:52:43.792Z,96240.37
2019-01-12T11:55:16.588Z,96243.20
2019-01-12T11:57:48.039Z,96236.23
2019-01-12T12:00:24.381Z,96222.27
2019-01-12T12:02:55.782Z,96220.81
2019-01-12T12:05:27.064Z,96216.27
2019-01-12T12:07:58.184Z,96210.52
2019-01-12T12:10:29.632Z,96208.50
2019-01-12T12:13:00.631Z,96213.31
2019-01-12T12:15:31.947Z,96185.59
2019-01-12T12:18:02.986Z,96181.94
2019-01-12T12:20:34.053Z,96182.23
2019-01-12T12:23:05.382Z,96179.06
2019-01-12T12:25:36.544Z,96168.17
2019-01-12T12:28:07.596Z,96156.13
2019-01-12T12:30:38.740Z,96163.53
2019-01-12T12:33:10.073Z,96158.86
2019-01-12T12:35:41.208Z,96151.48
2019-01-12T12:38:12.378Z,96154.20
2019-01-12T12:40:44.608Z,96150.74
2019-01-12T12:43:15.739Z,96148.30
2019-01-12T12:45:46.831Z,96142.94
2019-01-12T12:48:17.875Z,96137.34
2019-01-12T12:50:49.020Z,96140.28
2019-01-12T12:53:20.762Z,96138.52
2019-01-12T12:55:51.918Z,96139.73
2019-01-12T12:58:22.979Z,96138.33
2019-01-12T13:00:54.156Z,96135.99
2019-01-12T13:03:25.870Z,96131.06
2019-01-12T13:05:57.026Z,96116.79
2019-01-12T13:08:28.073Z,96116.19
2019-01-12T13:10:59.686Z,96123.47
2019-01-12T13:13:30.741Z,96111.31
2019-01-12T13:16:01.895Z,96120.86
2019-01-12T13:18:32.949Z,96108.66
2019-01-12T13:21:04.100Z,96106.91
2019-01-12T13:23:36.163Z,96106.92
2019-01-12T13:26:07.308Z,96103.11
2019-01-12T13:28:38.418Z,96092.95
2019-01-12T13:31:09.630Z,96074.02
2019-01-12T13:33:40.707Z,96071.48
2019-01-12T13:36:11.846Z,96063.13
2019-01-12T13:38:43.049Z,96059.52
2019-01-12T13:41:14.126Z,96062.10
2019-01-12T13:43:45.189Z,96058.56
2019-01-12T13:46:16.320Z,96068.14
2019-01-12T13:48:47.436Z,96071.82
2019-01-12T13:51:18.496Z,96079.88
2019-01-12T13:53:49.719Z,96083.68
2019-01-12T13:56:22.391Z,96060.48
2019-01-12T13:58:53.545Z,96079.47
2019-01-12T14:01:24.674Z,96090.30
2019-01-12T14:03:55.728Z,96085.81
2019-01-12T14:06:26.943Z,96086.07
2019-01-12T14:09:00.356Z,96095.00
2019-01-12T14:11:31.492Z,96097.41
2019-01-12T14:14:02.640Z,96092.90
2019-01-12T14:16:33.809Z,96091.16
2019-01-12T14:19:04.917Z,96086.38
2019-01-12T14:21:36.160Z,96091.27
2019-01-12T14:24:07.294Z,96092.73
2019-01-12T14:26:38.441Z,96095.39
2019-01-12T14:29:09.723Z,96094.20
2019-01-12T14:31:41.052Z,96087.40
2019-01-12T14:34:12.187Z,96080.71
2019-01-12T14:36:43.300Z,96081.42
2019-01-12T14:39:14.368Z,96074.94
2019-01-12T14:41:45.531Z,96072.73
2019-01-12T14:44:17.254Z,96069.44
2019-01-12T14:46:48.433Z,96068.13
2019-01-12T14:49:20.079Z,96049.62
2019-01-12T14:51:51.227Z,96059.44
2019-01-12T14:54:22.250Z,96050.00
2019-01-12T14:56:53.262Z,96056.48
2019-01-12T14:59:24.509Z,96051.08
2019-01-12T15:01:55.598Z,96051.45
2019-01-12T15:04:26.775Z,96039.25
2019-01-12T15:06:57.868Z,96032.83
2019-01-12T15:09:28.898Z,96031.28
2019-01-12T15:11:59.886Z,96032.03
2019-01-12T15:14:31.021Z,96038.89
2019-01-12T15:17:02.104Z,96025.88
2019-01-12T15:19:33.387Z,96036.97
2019-01-12T15:22:04.558Z,96023.14
2019-01-12T15:24:35.615Z,96031.47
2019-01-12T15:27:06.754Z,96015.79
2019-01-12T15:29:37.728Z,96022.84
2019-01-12T15:32:08.899Z,96004.52
2019-01-12T15:34:40.111Z,95991.59
2019-01-12T15:37:11.168Z,95986.64
2019-01-12T15:39:42.253Z,95985.28
2019-01-12T15:42:13.333Z,95983.25
2019-01-12T15:44:44.628Z,95971.33
2019-01-12T15:47:15.801Z,95965.66
2019-01-12T15:49:46.856Z,95952.55
2019-01-12T15:52:17.954Z,95957.41
2019-01-12T15:54:49.116Z,95956.11
2019-01-12T15:57:20.157Z,95955.58
2019-01-12T15:59:51.294Z,95959.78
2019-01-12T16:02:22.482Z,95949.34
2019-01-12T16:04:53.538Z,95939.63
2019-01-12T16:07:24.727Z,95943.59
2019-01-12T16:09:55.787Z,95928.45
2019-01-12T16:12:26.955Z,95928.19
2019-01-12T16:14:58.167Z,95930.93
2019-01-12T16:17:29.261Z,95940.91
2019-01-12T16:20:00.602Z,95916.64
2019-01-12T16:22:31.724Z,95918.12
2019-01-12T16:25:02.802Z,95912.44
2019-01-12T16:27:33.886Z,95891.97
2019-01-12T16:30:06.749Z,95889.61
2019-01-12T16:32:37.757Z,95882.38
2019-01-12T16:35:09.010Z,95901.07
2019-01-12T16:37:40.214Z,95885.56
2019-01-12T16:40:14.504Z,95869.61
2019-01-12T16:42:45.705Z,95879.61
2019-01-12T16:45:17.669Z,95873.28
2019-01-12T16:47:49.231Z,95882.73
2019-01-12T16:50:20.355Z,95880.25
2019-01-12T16:52:51.510Z,95864.86
2019-01-12T16:55:22.778Z,95864.22
2019-01-12T16:57:54.093Z,95881.06
2019-01-12T17:00:29.899Z,95885.39
2019-01-12T17:03:01.673Z,95885.18
2019-01-12T17:05:32.665Z,95872.52
2019-01-12T17:08:04.042Z,95884.63
2019-01-12T17:10:35.343Z,95877.22
2019-01-12T17:13:06.746Z,95879.58
2019-01-12T17:15:37.792Z,95881.07
2019-01-12T17:18:08.927Z,95864.83
2019-01-12T17:20:40.250Z,95863.08
2019-01-12T17:23:11.336Z,95868.47
2019-01-12T17:25:42.558Z,95863.80
2019-01-12T17:28:13.650Z,95852.04
2019-01-12T17:30:44.646Z,95861.58
2019-01-12T17:33:15.692Z,95859.19
2019-01-12T17:35:46.731Z,95859.09
2019-01-12T17:38:17.839Z,95861.92
2019-01-12T17:40:48.906Z,95853.41
2019-01-12T17:43:20.039Z,95840.53
2019-01-12T17:45:50.996Z,95851.44
2019-01-12T17:48:22.369Z,95846.59
2019-01-12T17:50:53.520Z,95842.76
2019-01-12T17:53:24.591Z,95828.33
2019-01-12T17:55:55.718Z,95826.45
2019-01-12T17:58:26.731Z,95816.78
2019-01-12T18:00:57.819Z,95818.14
2019-01-12T18:03:29.037Z,95818.52
2019-01-12T18:06:00.210Z,95822.63
2019-01-12T18:08:31.432Z,95817.09
2019-01-12T18:11:02.530Z,95812.61
2019-01-12T18:13:33.676Z,95816.54
2019-01-12T18:16:04.814Z,95760.95
2019-01-12T18:18:35.969Z,95819.29
2019-01-12T18:21:07.225Z,95814.03
2019-01-12T18:23:38.288Z,95813.14
2019-01-12T18:26:09.435Z,95820.47
2019-01-12T18:28:40.645Z,95820.59
2019-01-12T18:31:11.758Z,95808.62
2019-01-12T18:33:42.802Z,95821.19
2019-01-12T18:36:13.904Z,95812.59
2019-01-12T18:38:44.975Z,95822.78
2019-01-12T18:41:16.096Z,95813.50
2019-01-12T18:43:47.180Z,95815.28
2019-01-12T18:46:18.173Z,95809.72
2019-01-12T18:48:49.299Z,95803.69
2019-01-12T18:51:20.393Z,95795.38
2019-01-12T18:53:51.494Z,95805.08
2019-01-12T18:56:23.945Z,95809.24
2019-01-12T18:58:59.006Z,95757.03
2019-01-12T19:01:27.871Z,95767.94
2019-01-12T19:03:59.227Z,95765.85
2019-01-12T19:06:30.265Z,95760.27
2019-01-12T19:09:01.274Z,95755.44
2019-01-12T19:11:32.520Z,95743.70
2019-01-12T19:14:03.664Z,95743.70
2019-01-12T19:16:34.893Z,95757.71
2019-01-12T19:19:06.035Z,95750.95
2019-01-12T19:21:37.365Z,95746.00
2019-01-12T19:24:08.699Z,95738.52
2019-01-12T19:26:39.678Z,95722.84
2019-01-12T19:29:10.771Z,95718.25
2019-01-12T19:31:43.030Z,95711.95
2019-01-12T19:34:14.076Z,95711.00
2019-01-12T19:36:45.821Z,95706.25
2019-01-12T19:39:16.962Z,95727.11
2019-01-12T19:41:48.022Z,95694.57
2019-01-12T19:44:19.015Z,95714.05
2019-01-12T19:46:50.120Z,95693.58
2019-01-12T19:49:22.302Z,95697.70
2019-01-12T19:51:53.379Z,95691.28
2019-01-12T19:54:24.493Z,95687.72
2019-01-12T19:56:55.661Z,95693.58
2019-01-12T19:59:26.827Z,95687.45
2019-01-12T20:01:57.915Z,95715.17
2019-01-12T20:04:29.150Z,95684.34
2019-01-12T20:07:00.540Z,95682.41
2019-01-12T20:09:31.622Z,95682.78
2019-01-12T20:12:02.699Z,95687.17
2019-01-12T20:14:33.779Z,95679.34
2019-01-12T20:17:05.088Z,95661.77
2019-01-12T20:19:36.287Z,95670.00
2019-01-12T20:22:07.621Z,95668.36
2019-01-12T20:24:38.705Z,95660.88
2019-01-12T20:27:09.840Z,95650.52
2019-01-12T20:29:40.892Z,95667.62
2019-01-12T20:33:14.251Z,95662.58
2019-01-12T20:36:28.364Z,95653.81
2019-01-12T20:39:28.419Z,95642.58
2019-01-12T20:42:26.031Z,95646.69
2019-01-12T20:45:18.436Z,95644.19
2019-01-12T20:48:15.226Z,95653.33
2019-01-12T20:51:37.700Z,95644.37
2019-01-12T20:54:25.767Z,95639.53
2019-01-12T20:57:16.695Z,95652.42
2019-01-12T21:00:31.558Z,95605.77
2019-01-12T21:03:44.055Z,95599.36
2019-01-12T21:06:47.355Z,95599.95
2019-01-12T21:09:48.914Z,95595.43
2019-01-12T21:12:48.888Z,95587.66
2019-01-12T21:15:35.127Z,95612.34
2019-01-12T21:18:06.331Z,95580.11
2019-01-12T21:20:37.391Z,95578.66
2019-01-12T21:23:08.668Z,95578.11
2019-01-12T21:25:39.777Z,95608.94
2019-01-12T21:28:10.855Z,95575.45
2019-01-12T21:30:41.895Z,95585.27
2019-01-12T21:33:12.961Z,95583.17
2019-01-12T21:35:44.314Z,95586.00
2019-01-12T21:38:15.347Z,95584.55
2019-01-12T21:40:46.604Z,95576.95
2019-01-12T21:43:17.753Z,95579.13
2019-01-12T21:45:49.948Z,95583.78
2019-01-12T21:48:21.162Z,95596.71
2019-01-12T21:50:52.307Z,95568.70
2019-01-12T21:53:23.455Z,95572.30
2019-01-12T21:55:54.642Z,95585.36
2019-01-12T21:58:25.639Z,95574.04
2019-01-12T22:00:56.696Z,95569.09
2019-01-12T22:03:27.860Z,95564.22
2019-01-12T22:05:59.110Z,95569.17
2019-01-12T22:08:30.291Z,95586.73
2019-01-12T22:11:01.432Z,95560.39
2019-01-12T22:13:32.611Z,95550.48
2019-01-12T22:16:03.661Z,95541.64
2019-01-12T22:18:34.831Z,95536.35
2019-01-12T22:21:05.884Z,95559.05
2019-01-12T22:23:36.990Z,95543.25
2019-01-12T22:26:08.059Z,95546.55
2019-01-12T22:28:39.072Z,95538.95
2019-01-12T22:31:10.150Z,95505.39
2019-01-12T22:33:41.289Z,95530.88
2019-01-12T22:36:12.425Z,95524.13
2019-01-12T22:38:43.597Z,95521.92
2019-01-12T22:41:14.904Z,95525.20
2019-01-12T22:43:46.220Z,95509.45
2019-01-12T22:46:17.268Z,95516.11
2019-01-12T22:48:48.330Z,95501.16
2019-01-12T22:51:19.342Z,95502.37
2019-01-12T22:53:50.425Z,95518.84
2019-01-12T22:56:21.569Z,95501.59
2019-01-12T22:58:54.359Z,95522.09
2019-01-12T23:01:54.966Z,95505.48
2019-01-12T23:04:28.625Z,95490.11
2019-01-12T23:06:59.963Z,95491.38
2019-01-12T23:09:31.371Z,95482.09
2019-01-12T23:12:02.508Z,95483.05
2019-01-12T23:14:33.690Z,95486.26
2019-01-12T23:17:05.118Z,95482.16
2019-01-12T23:19:37.320Z,95478.31
2019-01-12T23:22:08.730Z,95468.74
2019-01-12T23:24:39.852Z,95470.19
2019-01-12T23:27:10.990Z,95468.48
2019-01-12T23:29:42.109Z,95473.22
2019-01-12T23:32:13.147Z,95478.92
2019-01-12T23:34:44.552Z,95467.05
2019-01-12T23:37:15.654Z,95444.33
2019-01-12T23:39:46.734Z,95476.20
2019-01-12T23:42:17.957Z,95443.98
2019-01-12T23:44:48.966Z,95433.84
2019-01-12T23:47:20.023Z,95435.41
2019-01-12T23:49:51.101Z,95445.75
2019-01-12T23:52:22.142Z,95436.06
2019-01-12T23:54:53.280Z,95438.53
2019-01-12T23:57:24.428Z,95434.97
2019-01-12T23:59:55.501Z,95438.09
